createdAt,value
2018-11-12T00:01:04.039Z,99020.85
2018-11-12T00:03:32.451Z,99027.05
2018-11-12T00:06:00.836Z,99028.03
2018-11-12T00:08:29.244Z,99025.33
2018-11-12T00:10:57.662Z,99033.05
2018-11-12T00:13:26.165Z,99028.79
2018-11-12T00:15:54.658Z,99017.61
2018-11-12T00:18:23.059Z,99030.73
2018-11-12T00:20:51.460Z,99035.31
2018-11-12T00:23:19.951Z,99037.52
2018-11-12T00:25:48.480Z,99027.84
2018-11-12T00:28:16.871Z,99027.78
2018-11-12T00:30:45.303Z,99027.63
2018-11-12T00:33:13.710Z,99027.44
2018-11-12T00:35:42.108Z,99027.84
2018-11-12T00:38:10.895Z,99022.20
2018-11-12T00:40:39.334Z,99022.05
2018-11-12T00:43:07.806Z,99032.59
2018-11-12T00:45:36.211Z,99041.13
2018-11-12T00:48:04.594Z,99045.98
2018-11-12T00:50:33.303Z,99059.97
2018-11-12T00:53:01.713Z,99055.72
2018-11-12T00:55:30.119Z,99055.66
2018-11-12T00:57:58.527Z,99052.63
2018-11-12T01:00:26.964Z,99053.36
2018-11-12T01:02:55.563Z,99050.52
2018-11-12T01:05:24.118Z,99040.76
2018-11-12T01:07:52.520Z,99035.41
2018-11-12T01:10:20.929Z,99044.19
2018-11-12T01:12:49.310Z,99048.31
2018-11-12T01:15:19.342Z,99044.25
2018-11-12T01:17:47.720Z,99035.97
2018-11-12T01:20:17.010Z,99036.28
2018-11-12T01:22:45.482Z,99038.96
2018-11-12T01:25:14.420Z,99042.42
2018-11-12T01:27:43.579Z,99037.08
2018-11-12T01:30:16.555Z,99030.05
2018-11-12T01:32:45.175Z,99041.92
2018-11-12T01:35:14.575Z,99039.02
2018-11-12T01:37:43.228Z,99039.15
2018-11-12T01:40:12.606Z,99045.55
2018-11-12T01:42:41.267Z,99053.73
2018-11-12T01:45:13.186Z,99049.86
2018-11-12T01:47:42.015Z,99049.10
2018-11-12T01:50:11.770Z,99049.86
2018-11-12T01:52:40.369Z,99052.06
2018-11-12T01:55:09.854Z,99049.45
2018-11-12T01:57:38.230Z,99041.67
2018-11-12T02:00:09.544Z,99045.14
2018-11-12T02:02:38.189Z,99043.18
2018-11-12T02:05:07.463Z,99042.23
2018-11-12T02:07:36.050Z,99039.81
2018-11-12T02:10:04.456Z,99033.17
2018-11-12T02:12:32.855Z,99031.52
2018-11-12T02:15:01.312Z,99036.82
2018-11-12T02:17:29.753Z,99031.09
2018-11-12T02:19:58.174Z,99030.14
2018-11-12T02:22:26.722Z,99042.23
2018-11-12T02:24:55.097Z,99038.84
2018-11-12T02:27:23.742Z,99037.42
2018-11-12T02:29:52.241Z,99041.70
2018-11-12T02:32:20.643Z,99037.48
2018-11-12T02:34:49.108Z,99038.20
2018-11-12T02:37:17.523Z,99031.27
2018-11-12T02:39:45.963Z,99030.48
2018-11-12T02:42:14.423Z,99036.59
2018-11-12T02:44:43.512Z,99029.63
2018-11-12T02:47:12.101Z,99032.44
2018-11-12T02:49:40.560Z,99040.25
2018-11-12T02:52:09.077Z,99040.13
2018-11-12T02:54:37.553Z,99044.19
2018-11-12T02:57:06.217Z,99053.33
2018-11-12T02:59:34.634Z,99059.53
2018-11-12T03:02:03.057Z,99058.27
2018-11-12T03:04:31.481Z,99058.42
2018-11-12T03:07:00.053Z,99057.86
2018-11-12T03:09:28.441Z,99062.74
2018-11-12T03:11:56.824Z,99063.94
2018-11-12T03:14:25.454Z,99062.02
2018-11-12T03:16:54.011Z,99059.31
2018-11-12T03:19:22.457Z,99056.72
2018-11-12T03:21:50.870Z,99044.53
2018-11-12T03:24:19.291Z,99053.58
2018-11-12T03:26:47.691Z,99052.44
2018-11-12T03:29:16.151Z,99052.00
2018-11-12T03:31:44.606Z,99048.94
2018-11-12T03:34:13.027Z,99050.04
2018-11-12T03:36:41.594Z,99046.30
2018-11-12T03:39:10.737Z,99055.45
2018-11-12T03:41:39.513Z,99041.83
2018-11-12T03:44:08.805Z,99046.64
2018-11-12T03:46:37.209Z,99047.77
2018-11-12T03:49:05.927Z,99045.55
2018-11-12T03:51:34.364Z,99054.89
2018-11-12T03:54:02.849Z,99055.90
2018-11-12T03:56:31.295Z,99055.30
2018-11-12T03:59:00.030Z,99050.39
2018-11-12T04:01:32.558Z,99054.02
2018-11-12T04:04:00.973Z,99058.90
2018-11-12T04:06:29.616Z,99054.42
2018-11-12T04:08:58.095Z,99053.23
2018-11-12T04:11:26.491Z,99054.61
2018-11-12T04:13:55.771Z,99052.16
2018-11-12T04:16:24.148Z,99056.55
2018-11-12T04:18:52.857Z,99061.92
2018-11-12T04:21:21.285Z,99062.33
2018-11-12T04:23:49.668Z,99060.00
2018-11-12T04:26:18.112Z,99059.31
2018-11-12T04:28:46.495Z,99064.84
2018-11-12T04:31:14.969Z,99065.60
2018-11-12T04:33:43.408Z,99067.08
2018-11-12T04:36:11.800Z,99066.09
2018-11-12T04:38:40.223Z,99068.67
2018-11-12T04:41:08.671Z,99070.45
2018-11-12T04:43:38.089Z,99076.50
2018-11-12T04:46:06.863Z,99070.27
2018-11-12T04:48:35.267Z,99077.56
2018-11-12T04:51:03.651Z,99079.33
2018-11-12T04:53:32.100Z,99074.73
2018-11-12T04:56:00.627Z,99082.80
2018-11-12T04:58:29.065Z,99079.08
2018-11-12T05:00:57.462Z,99082.23
2018-11-12T05:03:26.015Z,99080.27
2018-11-12T05:05:54.560Z,99082.34
2018-11-12T05:08:23.031Z,99092.53
2018-11-12T05:10:51.904Z,99097.09
2018-11-12T05:13:20.400Z,99103.31
2018-11-12T05:15:48.855Z,99103.45
2018-11-12T05:18:17.312Z,99107.03
2018-11-12T05:20:45.768Z,99097.50
2018-11-12T05:23:14.188Z,99101.34
2018-11-12T05:25:42.845Z,99107.85
2018-11-12T05:28:11.249Z,99111.61
2018-11-12T05:30:39.665Z,99104.20
2018-11-12T05:33:08.159Z,99101.76
2018-11-12T05:35:36.618Z,99098.64
2018-11-12T05:38:05.693Z,99098.07
2018-11-12T05:40:34.100Z,99099.80
2018-11-12T05:43:02.518Z,99112.25
2018-11-12T05:45:31.125Z,99114.42
2018-11-12T05:47:59.606Z,99109.84
2018-11-12T05:50:29.398Z,99108.08
2018-11-12T05:53:00.917Z,99110.67
2018-11-12T05:55:30.295Z,99112.07
2018-11-12T05:57:59.121Z,99116.91
2018-11-12T06:00:29.348Z,99114.95
2018-11-12T06:02:57.778Z,99122.25
2018-11-12T06:05:26.269Z,99120.38
2018-11-12T06:07:54.731Z,99122.19
2018-11-12T06:10:25.483Z,99116.09
2018-11-12T06:12:54.111Z,99117.29
2018-11-12T06:15:22.535Z,99123.16
2018-11-12T06:17:51.544Z,99123.27
2018-11-12T06:20:21.547Z,99123.61
2018-11-12T06:22:50.141Z,99128.31
2018-11-12T06:25:19.763Z,99127.67
2018-11-12T06:27:48.454Z,99126.09
2018-11-12T06:30:19.399Z,99128.28
2018-11-12T06:32:47.873Z,99137.15
2018-11-12T06:35:16.857Z,99141.22
2018-11-12T06:37:46.125Z,99150.52
2018-11-12T06:40:23.239Z,99196.37
2018-11-12T06:42:52.136Z,99220.19
2018-11-12T06:45:32.343Z,99223.73
2018-11-12T06:48:08.244Z,99230.38
2018-11-12T06:51:02.161Z,99234.34
2018-11-12T06:53:38.229Z,99236.19
2018-11-12T06:56:13.742Z,99236.99
2018-11-12T06:58:50.525Z,99238.31
2018-11-12T07:01:25.456Z,99238.55
2018-11-12T07:03:54.738Z,99238.02
2018-11-12T07:06:23.510Z,99244.08
2018-11-12T07:08:52.347Z,99248.84
2018-11-12T07:14:15.554Z,99252.52
2018-11-12T07:16:44.377Z,99248.78
2018-11-12T07:19:13.105Z,99240.56
2018-11-12T07:21:42.016Z,99258.30
2018-11-12T07:24:10.719Z,99261.47
2018-11-12T07:26:39.752Z,99266.52
2018-11-12T07:29:08.847Z,99263.85
2018-11-12T07:31:37.728Z,99264.87
2018-11-12T07:34:06.546Z,99271.02
2018-11-12T07:36:35.207Z,99272.55
2018-11-12T07:41:46.085Z,99278.08
2018-11-12T07:44:16.027Z,99280.78
2018-11-12T07:46:44.656Z,99285.48
2018-11-12T07:49:16.200Z,99285.77
2018-11-12T07:51:44.845Z,99286.31
2018-11-12T07:54:13.332Z,99292.33
2018-11-12T07:56:42.514Z,99291.30
2018-11-12T07:59:11.068Z,99292.63
2018-11-12T08:01:43.878Z,99289.16
2018-11-12T08:04:12.788Z,99295.99
2018-11-12T08:06:41.467Z,99292.59
2018-11-12T08:09:11.467Z,99287.39
2018-11-12T08:11:40.460Z,99291.29
2018-11-12T08:14:09.773Z,99285.34
2018-11-12T08:16:38.685Z,99290.91
2018-11-12T08:19:09.066Z,99268.91
2018-11-12T08:21:37.696Z,99286.31
2018-11-12T08:24:06.462Z,99279.89
2018-11-12T08:26:36.440Z,99278.83
2018-11-12T08:29:05.929Z,99285.08
2018-11-12T08:31:34.867Z,99276.45
2018-11-12T08:34:03.384Z,99278.70
2018-11-12T08:36:32.978Z,99276.56
2018-11-12T08:39:01.505Z,99269.96
2018-11-12T08:41:30.320Z,99283.51
2018-11-12T08:43:58.851Z,99282.23
2018-11-12T08:46:27.376Z,99274.88
2018-11-12T08:48:59.764Z,99262.46
2018-11-12T08:51:28.342Z,99272.98
2018-11-12T08:53:57.831Z,99260.53
2018-11-12T08:56:28.469Z,99261.39
2018-11-12T08:59:08.460Z,99260.11
2018-11-12T09:01:48.185Z,99261.75
2018-11-12T09:04:32.309Z,99262.53
2018-11-12T09:07:01.488Z,99255.93
2018-11-12T09:09:30.317Z,99255.93
2018-11-12T09:11:58.924Z,99260.45
2018-11-12T09:14:27.501Z,99258.63
2018-11-12T09:16:56.438Z,99254.49
2018-11-12T09:19:25.060Z,99262.13
2018-11-12T09:21:54.488Z,99242.94
2018-11-12T09:24:27.995Z,99238.17
2018-11-12T09:26:58.814Z,99227.50
2018-11-12T09:29:29.196Z,99233.00
2018-11-12T09:31:57.787Z,99228.57
2018-11-12T09:34:26.411Z,99234.66
2018-11-12T09:36:55.232Z,99235.08
2018-11-12T09:39:23.864Z,99234.99
2018-11-12T09:41:58.710Z,99222.21
2018-11-12T09:44:36.057Z,99230.44
2018-11-12T09:47:12.315Z,99227.80
2018-11-12T09:49:50.052Z,99217.30
2018-11-12T09:52:19.149Z,99205.34
2018-11-12T09:54:47.772Z,99212.87
2018-11-12T09:57:17.034Z,99213.66
2018-11-12T09:59:45.816Z,99211.50
2018-11-12T10:02:15.346Z,99192.81
2018-11-12T10:04:44.639Z,99187.52
2018-11-12T10:07:14.764Z,99179.84
2018-11-12T10:09:52.991Z,99188.50
2018-11-12T10:12:23.617Z,99182.20
2018-11-12T10:14:52.896Z,99189.30
2018-11-12T10:17:22.916Z,99178.23
2018-11-12T10:19:48.082Z,99165.75
2018-11-12T10:22:17.194Z,99176.41
2018-11-12T10:24:45.829Z,99155.70
2018-11-12T10:27:16.241Z,99154.68
2018-11-12T10:29:44.962Z,99159.86
2018-11-12T10:32:13.784Z,99145.96
2018-11-12T10:34:42.413Z,99154.61
2018-11-12T10:37:13.284Z,99149.28
2018-11-12T10:39:42.489Z,99143.22
2018-11-12T10:42:26.899Z,99153.34
2018-11-12T10:44:56.337Z,99147.27
2018-11-12T10:47:26.291Z,99148.27
2018-11-12T10:49:56.540Z,99145.41
2018-11-12T10:52:25.489Z,99147.29
2018-11-12T10:55:04.889Z,99145.22
2018-11-12T10:57:22.874Z,99144.72
2018-11-12T10:59:52.885Z,99139.51
2018-11-12T11:02:27.090Z,99143.43
2018-11-12T11:04:57.358Z,99138.36
2018-11-12T11:07:26.194Z,99137.38
2018-11-12T11:09:55.832Z,99132.51
2018-11-12T11:12:25.316Z,99134.81
2018-11-12T11:14:54.229Z,99130.86
2018-11-12T11:17:24.187Z,99128.65
2018-11-12T11:19:52.970Z,99127.62
2018-11-12T11:22:21.790Z,99130.28
2018-11-12T11:24:50.617Z,99135.45
2018-11-12T11:27:19.355Z,99126.55
2018-11-12T11:29:48.437Z,99134.21
2018-11-12T11:32:17.268Z,99135.50
2018-11-12T11:34:46.199Z,99134.86
2018-11-12T11:37:19.366Z,99146.14
2018-11-12T11:39:48.263Z,99141.46
2018-11-12T11:42:16.969Z,99135.16
2018-11-12T11:44:45.661Z,99124.61
2018-11-12T11:47:15.289Z,99130.47
2018-11-12T11:49:44.068Z,99121.66
2018-11-12T11:52:12.958Z,99113.27
2018-11-12T11:54:41.608Z,99120.85
2018-11-12T11:57:10.982Z,99107.47
2018-11-12T11:59:39.793Z,99122.40
2018-11-12T12:02:10.317Z,99111.27
2018-11-12T12:04:39.411Z,99113.44
2018-11-12T12:07:08.164Z,99116.96
2018-11-12T12:09:37.621Z,99115.34
2018-11-12T12:12:07.790Z,99119.86
2018-11-12T12:14:38.912Z,99112.82
2018-11-12T12:17:08.624Z,99126.11
2018-11-12T12:19:37.821Z,99117.87
2018-11-12T12:22:07.579Z,99118.23
2018-11-12T12:24:36.829Z,99118.50
2018-11-12T12:27:06.651Z,99121.48
2018-11-12T12:29:35.947Z,99116.74
2018-11-12T12:32:04.636Z,99127.44
2018-11-12T12:34:35.023Z,99136.44
2018-11-12T12:37:05.744Z,99138.34
2018-11-12T12:39:36.098Z,99137.20
2018-11-12T12:42:06.767Z,99153.31
2018-11-12T12:44:36.184Z,99138.84
2018-11-12T12:47:06.852Z,99140.58
2018-11-12T12:49:36.936Z,99142.79
2018-11-12T12:52:09.199Z,99129.33
2018-11-12T12:54:44.568Z,99131.19
2018-11-12T12:57:14.739Z,99134.79
2018-11-12T12:59:48.141Z,99129.90
2018-11-12T13:02:17.380Z,99140.45
2018-11-12T13:04:56.713Z,99134.16
2018-11-12T13:07:32.632Z,99148.91
2018-11-12T13:10:06.881Z,99154.61
2018-11-12T13:12:36.373Z,99150.98
2018-11-12T13:15:11.299Z,99157.36
2018-11-12T13:17:41.354Z,99146.73
2018-11-12T13:20:15.270Z,99147.36
2018-11-12T13:22:45.453Z,99159.02
2018-11-12T13:25:17.554Z,99145.63
2018-11-12T13:27:49.463Z,99140.37
2018-11-12T13:30:22.764Z,99142.89
2018-11-12T13:32:52.039Z,99141.38
2018-11-12T13:35:22.237Z,99145.42
2018-11-12T13:37:51.080Z,99148.03
2018-11-12T13:40:23.832Z,99155.88
2018-11-12T13:42:54.788Z,99157.54
2018-11-12T13:45:23.746Z,99154.22
2018-11-12T13:47:52.621Z,99147.28
2018-11-12T13:50:22.344Z,99145.61
2018-11-12T13:52:51.424Z,99152.46
2018-11-12T13:55:20.877Z,99152.45
2018-11-12T13:57:49.415Z,99154.45
2018-11-12T14:00:19.665Z,99159.42
2018-11-12T14:02:48.763Z,99155.58
2018-11-12T14:05:18.697Z,99161.03
2018-11-12T14:07:47.555Z,99158.06
2018-11-12T14:10:22.979Z,99166.58
2018-11-12T14:12:52.452Z,99171.52
2018-11-12T14:15:22.228Z,99166.81
2018-11-12T14:17:51.377Z,99175.34
2018-11-12T14:20:20.734Z,99181.02
2018-11-12T14:22:49.306Z,99179.95
2018-11-12T14:25:18.796Z,99173.98
2018-11-12T14:27:48.917Z,99187.41
2018-11-12T14:30:18.929Z,99187.95
2018-11-12T14:32:47.591Z,99188.28
2018-11-12T14:35:16.182Z,99191.02
2018-11-12T14:37:45.943Z,99199.34
2018-11-12T14:40:15.725Z,99196.03
2018-11-12T14:42:44.653Z,99197.77
2018-11-12T14:45:14.939Z,99186.32
2018-11-12T14:47:44.111Z,99189.85
2018-11-12T14:50:12.850Z,99191.52
2018-11-12T14:52:41.598Z,99191.84
2018-11-12T14:55:11.897Z,99191.88
2018-11-12T14:57:40.638Z,99196.73
2018-11-12T15:00:15.460Z,99207.97
2018-11-12T15:02:44.077Z,99211.20
2018-11-12T15:05:13.123Z,99214.78
2018-11-12T15:07:43.002Z,99208.36
2018-11-12T15:10:12.523Z,99209.99
2018-11-12T15:12:41.101Z,99209.52
2018-11-12T15:15:10.907Z,99216.20
2018-11-12T15:17:39.908Z,99225.03
2018-11-12T15:20:11.281Z,99217.38
2018-11-12T15:22:40.148Z,99207.55
2018-11-12T15:25:12.343Z,99192.20
2018-11-12T15:27:41.095Z,99197.80
2018-11-12T15:30:12.142Z,99201.86
2018-11-12T15:32:41.411Z,99208.01
2018-11-12T15:35:10.861Z,99212.29
2018-11-12T15:37:39.844Z,99204.84
2018-11-12T15:40:09.495Z,99212.88
2018-11-12T15:42:39.028Z,99210.98
2018-11-12T15:45:09.750Z,99212.05
2018-11-12T15:47:38.372Z,99218.48
2018-11-12T15:50:22.985Z,99224.03
2018-11-12T15:52:51.705Z,99224.64
2018-11-12T15:55:21.719Z,99232.56
2018-11-12T15:57:50.297Z,99233.13
2018-11-12T16:00:18.904Z,99239.02
2018-11-12T16:02:47.586Z,99242.19
2018-11-12T16:05:16.182Z,99249.62
2018-11-12T16:07:51.171Z,99245.09
2018-11-12T16:10:23.441Z,99246.09
2018-11-12T16:12:55.231Z,99245.91
2018-11-12T16:15:25.875Z,99248.80
2018-11-12T16:17:55.730Z,99245.54
2018-11-12T16:20:28.362Z,99239.40
2018-11-12T16:22:59.308Z,99232.80
2018-11-12T16:25:28.979Z,99240.55
2018-11-12T16:27:59.010Z,99242.42
2018-11-12T16:30:28.949Z,99244.05
2018-11-12T16:33:00.172Z,99250.42
2018-11-12T16:35:29.393Z,99253.11
2018-11-12T16:37:58.585Z,99247.47
2018-11-12T16:40:27.319Z,99252.05
2018-11-12T16:42:56.799Z,99247.21
2018-11-12T16:45:25.590Z,99237.89
2018-11-12T16:47:55.752Z,99230.83
2018-11-12T16:50:24.683Z,99228.39
2018-11-12T16:52:53.657Z,99235.88
2018-11-12T16:55:23.709Z,99233.52
2018-11-12T16:57:54.092Z,99238.52
2018-11-12T17:00:24.611Z,99237.50
2018-11-12T17:02:53.385Z,99244.34
2018-11-12T17:05:23.745Z,99250.50
2018-11-12T17:07:52.728Z,99256.95
2018-11-12T17:10:23.338Z,99265.91
2018-11-12T17:12:52.375Z,99261.73
2018-11-12T17:15:21.893Z,99267.53
2018-11-12T17:17:50.772Z,99263.59
2018-11-12T17:20:20.817Z,99275.28
2018-11-12T17:22:49.635Z,99276.08
2018-11-12T17:25:18.934Z,99266.25
2018-11-12T17:27:48.589Z,99268.39
2018-11-12T17:30:20.581Z,99275.56
2018-11-12T17:32:50.095Z,99262.28
2018-11-12T17:35:20.017Z,99273.70
2018-11-12T17:37:49.216Z,99263.61
2018-11-12T17:40:21.167Z,99281.68
2018-11-12T17:42:50.832Z,99272.47
2018-11-12T17:45:21.718Z,99266.33
2018-11-12T17:47:52.981Z,99271.94
2018-11-12T17:50:21.962Z,99281.55
2018-11-12T17:52:51.041Z,99279.22
2018-11-12T17:55:19.814Z,99297.77
2018-11-12T17:57:48.970Z,99291.70
2018-11-12T18:00:21.957Z,99303.96
2018-11-12T18:02:50.628Z,99293.81
2018-11-12T18:05:20.337Z,99300.47
2018-11-12T18:07:49.059Z,99307.92
2018-11-12T18:10:18.641Z,99316.73
2018-11-12T18:12:47.240Z,99319.08
2018-11-12T18:15:17.326Z,99325.75
2018-11-12T18:17:45.990Z,99328.70
2018-11-12T18:20:20.332Z,99324.42
2018-11-12T18:22:49.641Z,99315.93
2018-11-12T18:25:18.722Z,99314.30
2018-11-12T18:27:47.682Z,99312.67
2018-11-12T18:30:18.898Z,99315.38
2018-11-12T18:32:50.000Z,99307.41
2018-11-12T18:35:18.989Z,99311.92
2018-11-12T18:37:47.826Z,99303.69
2018-11-12T18:40:19.717Z,99301.80
2018-11-12T18:42:48.764Z,99301.02
2018-11-12T18:45:19.867Z,99300.80
2018-11-12T18:47:50.511Z,99293.31
2018-11-12T18:50:22.137Z,99296.21
2018-11-12T18:52:50.786Z,99297.72
2018-11-12T18:55:19.426Z,99293.73
2018-11-12T18:57:49.297Z,99300.36
2018-11-12T19:00:19.452Z,99304.34
2018-11-12T19:02:48.641Z,99310.46
2018-11-12T19:05:23.483Z,99307.82
2018-11-12T19:07:53.544Z,99323.50
2018-11-12T19:10:29.800Z,99322.21
2018-11-12T19:12:58.933Z,99316.64
2018-11-12T19:15:30.663Z,99318.48
2018-11-12T19:18:02.404Z,99317.97
2018-11-12T19:20:31.128Z,99324.68
2018-11-12T19:22:59.870Z,99321.43
2018-11-12T19:25:28.620Z,99324.13
2018-11-12T19:27:58.930Z,99320.98
2018-11-12T19:30:28.619Z,99323.37
2018-11-12T19:32:57.460Z,99325.23
2018-11-12T19:35:27.849Z,99332.66
2018-11-12T19:37:57.490Z,99331.32
2018-11-12T19:40:27.826Z,99345.96
2018-11-12T19:42:56.980Z,99339.34
2018-11-12T19:45:25.644Z,99340.68
2018-11-12T19:47:54.654Z,99340.45
2018-11-12T19:50:24.558Z,99340.41
2018-11-12T19:52:54.531Z,99336.47
2018-11-12T19:55:23.181Z,99334.34
2018-11-12T19:57:51.851Z,99341.78
2018-11-12T20:00:22.259Z,99351.86
2018-11-12T20:02:52.074Z,99350.82
2018-11-12T20:05:20.720Z,99347.17
2018-11-12T20:07:49.348Z,99336.55
2018-11-12T20:10:20.951Z,99347.65
2018-11-12T20:12:49.773Z,99356.17
2018-11-12T20:15:19.610Z,99362.86
2018-11-12T20:17:49.201Z,99355.41
2018-11-12T20:20:23.583Z,99359.92
2018-11-12T20:22:52.616Z,99346.92
2018-11-12T20:25:21.678Z,99362.28
2018-11-12T20:27:51.438Z,99350.61
2018-11-12T20:30:26.054Z,99366.80
2018-11-12T20:32:54.753Z,99365.47
2018-11-12T20:35:23.442Z,99365.73
2018-11-12T20:37:52.464Z,99372.10
2018-11-12T20:40:21.472Z,99356.13
2018-11-12T20:42:50.743Z,99366.70
2018-11-12T20:45:20.598Z,99355.28
2018-11-12T20:47:50.427Z,99371.55
2018-11-12T20:50:19.169Z,99369.95
2018-11-12T20:52:47.876Z,99357.26
2018-11-12T20:55:17.300Z,99368.12
2018-11-12T20:57:46.553Z,99367.05
2018-11-12T21:00:18.627Z,99369.70
2018-11-12T21:02:48.736Z,99372.36
2018-11-12T21:05:17.725Z,99385.13
2018-11-12T21:07:46.361Z,99376.66
2018-11-12T21:10:16.311Z,99376.90
2018-11-12T21:12:45.224Z,99371.03
2018-11-12T21:15:14.953Z,99380.11
2018-11-12T21:17:43.880Z,99385.66
2018-11-12T21:20:14.545Z,99367.84
2018-11-12T21:22:43.457Z,99390.41
2018-11-12T21:25:13.365Z,99374.09
2018-11-12T21:27:42.058Z,99374.99
2018-11-12T21:30:20.535Z,99358.28
2018-11-12T21:32:49.584Z,99366.28
2018-11-12T21:35:18.311Z,99370.22
2018-11-12T21:37:47.925Z,99364.64
2018-11-12T21:40:18.617Z,99364.58
2018-11-12T21:42:47.232Z,99366.19
2018-11-12T21:45:17.337Z,99368.79
2018-11-12T21:47:46.728Z,99364.23
2018-11-12T21:50:17.597Z,99366.60
2018-11-12T21:52:46.242Z,99361.22
2018-11-12T21:55:14.962Z,99361.22
2018-11-12T21:57:44.357Z,99354.89
2018-11-12T22:01:19.743Z,99355.44
2018-11-12T22:03:49.156Z,99354.65
2018-11-12T22:06:18.732Z,99353.29
2018-11-12T22:08:47.525Z,99348.77
2018-11-12T22:11:16.200Z,99345.66
2018-11-12T22:13:44.841Z,99353.34
2018-11-12T22:16:13.506Z,99359.78
2018-11-12T22:18:42.270Z,99362.94
2018-11-12T22:21:10.883Z,99356.27
2018-11-12T22:23:43.204Z,99356.49
2018-11-12T22:26:11.814Z,99367.19
2018-11-12T22:28:40.418Z,99369.61
2018-11-12T22:31:08.976Z,99362.16
2018-11-12T22:33:37.616Z,99369.36
2018-11-12T22:36:06.299Z,99364.35
2018-11-12T22:38:34.864Z,99364.04
2018-11-12T22:41:03.547Z,99369.91
2018-11-12T22:43:32.117Z,99371.23
2018-11-12T22:46:00.826Z,99364.91
2018-11-12T22:48:29.603Z,99370.25
2018-11-12T22:50:58.151Z,99366.01
2018-11-12T22:53:26.810Z,99359.33
2018-11-12T22:55:56.363Z,99371.51
2018-11-12T22:58:25.012Z,99372.55
2018-11-12T23:00:54.042Z,99366.13
2018-11-12T23:03:22.657Z,99372.77
2018-11-12T23:05:55.452Z,99377.03
2018-11-12T23:08:24.082Z,99373.61
2018-11-12T23:10:52.791Z,99379.72
2018-11-12T23:13:21.537Z,99381.33
2018-11-12T23:15:50.180Z,99371.52
2018-11-12T23:18:18.849Z,99379.00
2018-11-12T23:20:47.555Z,99371.88
2018-11-12T23:23:16.376Z,99372.47
2018-11-12T23:25:45.545Z,99371.66
2018-11-12T23:28:15.000Z,99378.80
2018-11-12T23:30:43.819Z,99378.23
2018-11-12T23:33:12.440Z,99383.82
2018-11-12T23:35:41.431Z,99371.86
2018-11-12T23:38:10.253Z,99372.67
2018-11-12T23:40:39.076Z,99367.30
2018-11-12T23:43:07.604Z,99362.78
2018-11-12T23:45:36.435Z,99373.15
2018-11-12T23:48:05.191Z,99372.88
2018-11-12T23:50:33.921Z,99376.59
2018-11-12T23:53:03.045Z,99368.39
2018-11-12T23:55:33.340Z,99367.36
2018-11-12T23:58:01.955Z,99368.43
